Torpoint, United Kingdom
Current Conditions -  °F | °C
As of 5:20 PM on Thursday 30 Oct 2014 (Local Time) from EGHQ Reporting Station
Moderate Fog Moderate Fog  
Wind Chill: 57°   Ceiling: 100
Heat Index: 57°   Visibility: 0.56mi
Dew Point: 57°   Wind: 12mph
Humidity: 100%   Direction: 170°S
Pressure: 29.97"   Gusts: NA
Location:  50.38°N, 4.2°W
Report Text: EGHQ 301720Z 17010KT 0900 R12/P1500 FG OVC001 14/14 Q1015
Loading
Personal Weather Stations






























Interactive Weather Map
Tropical Storm Tracking
New forecast layout! Learn more

10-Day Weather Forecast

Advertisements
Track Severe Weather on mobile